首页
METAR-TAF:

METAR-TAF

机场 :

敖德薩國際機場

敖德薩, 乌克兰

纬度: 46-26N, 经度: 030-46E, 海拔: 42米

当前天气观测

该预报发布于14分钟前的12:30 UTC
风速6节,风向东转东南
温度 7°C
湿度 87%
气压 1017 hPa
能见度10公里或以上
多云层高于1100英尺

METAR: UKOO 271230Z 12003MPS 9999 BKN011 07/05 Q1017 R16/190058 NOSIG

时间: 14:44 (12:44 UTC)

预报

该预报发布于1小时和38分钟前的11:06 UTC
预报有效从27日的 12点(UTC)到 28日的 12点(UTC)
风速6节,风向南转南东
能見度: 2100
散云层高于400英尺
多云层高于700英尺
散云层高于1500英尺, 积雨云.
轻雾
几率 40% :
短暂存在
从 27日的 12点(UTC)到 27日的 17点(UTC)
能見度: 0400
层高于200英尺
短暂存在
从 27日的 17点(UTC)到 28日的 07点(UTC)
能見度: 0400
层高于200英尺
小阵雨, 雾

TAF: UKOO 271106Z 2712/2812 15003MPS 2100 BR SCT004 BKN007 SCT015CB TX07/2712Z TN00/2804Z PROB40 TEMPO 2712/2717 0400 FG VV002 TEMPO 2717/2807 0400 -SHRA FG VV002

超过4000个机场的气象观测和天气预报(METAR&TAF报告)。

可查询的气象台以黄色和红色小点在地图上表示。

将鼠标移到小点上方,可查看气象台名称。

然后点击查看天气观测和预报。

如需切换地图:点击带黑十字的绿色按钮放大地图;点击带横线的绿色按钮缩小地图;或者点击绿色箭头查看邻近地区的地图。


METAR-TAF: